sensor_id;sensor_type;location;lat;lon;timestamp;P1;durP1;ratioP1;P2;durP2;ratioP2
11839;SDS011;5979;50.800;4.904;2022-09-09T00:04:37;3.42;;;1.08;;
11839;SDS011;5979;50.800;4.904;2022-09-09T00:07:21;2.13;;;0.75;;
11839;SDS011;5979;50.800;4.904;2022-09-09T00:12:54;3.60;;;1.02;;
11839;SDS011;5979;50.800;4.904;2022-09-09T00:15:37;2.92;;;1.25;;
11839;SDS011;5979;50.800;4.904;2022-09-09T00:20:42;4.30;;;1.10;;
11839;SDS011;5979;50.800;4.904;2022-09-09T00:23:14;2.28;;;1.17;;
11839;SDS011;5979;50.800;4.904;2022-09-09T00:28:28;3.35;;;1.20;;
11839;SDS011;5979;50.800;4.904;2022-09-09T00:31:12;2.38;;;1.33;;
11839;SDS011;5979;50.800;4.904;2022-09-09T00:33:40;4.03;;;1.10;;
11839;SDS011;5979;50.800;4.904;2022-09-09T00:36:14;2.70;;;1.17;;
11839;SDS011;5979;50.800;4.904;2022-09-09T00:38:47;1.45;;;1.35;;
11839;SDS011;5979;50.800;4.904;2022-09-09T00:44:00;2.75;;;1.38;;
11839;SDS011;5979;50.800;4.904;2022-09-09T00:54:56;1.33;;;1.02;;
11839;SDS011;5979;50.800;4.904;2022-09-09T00:57:46;3.22;;;1.40;;
11839;SDS011;5979;50.800;4.904;2022-09-09T01:08:00;4.53;;;1.42;;
11839;SDS011;5979;50.800;4.904;2022-09-09T01:11:00;4.95;;;1.70;;
11839;SDS011;5979;50.800;4.904;2022-09-09T01:13:27;1.60;;;1.50;;
11839;SDS011;5979;50.800;4.904;2022-09-09T01:15:55;3.75;;;1.52;;
11839;SDS011;5979;50.800;4.904;2022-09-09T01:18:26;2.58;;;1.50;;
11839;SDS011;5979;50.800;4.904;2022-09-09T01:21:17;4.10;;;1.73;;
11839;SDS011;5979;50.800;4.904;2022-09-09T01:26:43;3.55;;;1.83;;
11839;SDS011;5979;50.800;4.904;2022-09-09T01:29:11;3.10;;;1.85;;
11839;SDS011;5979;50.800;4.904;2022-09-09T01:31:51;3.85;;;1.58;;
11839;SDS011;5979;50.800;4.904;2022-09-09T01:34:23;2.35;;;1.70;;
11839;SDS011;5979;50.800;4.904;2022-09-09T01:39:36;2.42;;;1.40;;
11839;SDS011;5979;50.800;4.904;2022-09-09T01:42:04;4.53;;;1.52;;
11839;SDS011;5979;50.800;4.904;2022-09-09T01:44:32;2.47;;;1.75;;
11839;SDS011;5979;50.800;4.904;2022-09-09T01:47:00;3.03;;;1.40;;
11839;SDS011;5979;50.800;4.904;2022-09-09T01:49:27;2.85;;;1.77;;
11839;SDS011;5979;50.800;4.904;2022-09-09T01:51:53;3.90;;;1.67;;
11839;SDS011;5979;50.800;4.904;2022-09-09T01:54:20;6.55;;;1.98;;
11839;SDS011;5979;50.800;4.904;2022-09-09T01:57:06;2.47;;;1.60;;
11839;SDS011;5979;50.800;4.904;2022-09-09T01:59:41;2.08;;;1.60;;
11839;SDS011;5979;50.800;4.904;2022-09-09T02:02:30;2.40;;;1.40;;
11839;SDS011;5979;50.800;4.904;2022-09-09T02:05:12;2.53;;;1.50;;
11839;SDS011;5979;50.800;4.904;2022-09-09T02:07:47;1.95;;;1.55;;
11839;SDS011;5979;50.800;4.904;2022-09-09T02:10:21;6.90;;;2.13;;
11839;SDS011;5979;50.800;4.904;2022-09-09T02:13:02;3.65;;;1.83;;
11839;SDS011;5979;50.800;4.904;2022-09-09T02:15:35;2.08;;;1.80;;
11839;SDS011;5979;50.800;4.904;2022-09-09T02:18:10;4.20;;;1.40;;
11839;SDS011;5979;50.800;4.904;2022-09-09T02:20:39;3.70;;;1.63;;
11839;SDS011;5979;50.800;4.904;2022-09-09T02:23:07;2.45;;;1.70;;
11839;SDS011;5979;50.800;4.904;2022-09-09T02:25:34;3.55;;;2.00;;
11839;SDS011;5979;50.800;4.904;2022-09-09T02:28:01;2.05;;;1.73;;
11839;SDS011;5979;50.800;4.904;2022-09-09T02:30:30;5.55;;;1.85;;
11839;SDS011;5979;50.800;4.904;2022-09-09T02:32:59;4.30;;;1.70;;
11839;SDS011;5979;50.800;4.904;2022-09-09T02:35:28;3.47;;;1.70;;
11839;SDS011;5979;50.800;4.904;2022-09-09T02:37:56;2.53;;;1.85;;
11839;SDS011;5979;50.800;4.904;2022-09-09T02:40:27;3.00;;;1.77;;
11839;SDS011;5979;50.800;4.904;2022-09-09T02:42:53;3.22;;;1.70;;
11839;SDS011;5979;50.800;4.904;2022-09-09T02:45:20;3.17;;;1.55;;
11839;SDS011;5979;50.800;4.904;2022-09-09T02:50:52;3.85;;;1.90;;
11839;SDS011;5979;50.800;4.904;2022-09-09T02:56:25;6.68;;;1.90;;
11839;SDS011;5979;50.800;4.904;2022-09-09T02:58:55;3.72;;;2.08;;
11839;SDS011;5979;50.800;4.904;2022-09-09T03:01:21;2.78;;;2.15;;
11839;SDS011;5979;50.800;4.904;2022-09-09T03:03:46;2.97;;;1.70;;
11839;SDS011;5979;50.800;4.904;2022-09-09T03:06:13;5.88;;;2.08;;
11839;SDS011;5979;50.800;4.904;2022-09-09T03:08:39;2.40;;;1.85;;
11839;SDS011;5979;50.800;4.904;2022-09-09T03:11:05;4.05;;;1.80;;
11839;SDS011;5979;50.800;4.904;2022-09-09T03:13:31;2.47;;;1.60;;
11839;SDS011;5979;50.800;4.904;2022-09-09T03:15:56;3.65;;;2.20;;
11839;SDS011;5979;50.800;4.904;2022-09-09T03:18:22;5.38;;;2.03;;
11839;SDS011;5979;50.800;4.904;2022-09-09T03:20:48;5.43;;;1.77;;
11839;SDS011;5979;50.800;4.904;2022-09-09T03:23:14;3.00;;;1.77;;
11839;SDS011;5979;50.800;4.904;2022-09-09T03:25:45;2.83;;;1.85;;
11839;SDS011;5979;50.800;4.904;2022-09-09T03:28:12;1.90;;;1.40;;
11839;SDS011;5979;50.800;4.904;2022-09-09T03:30:38;4.72;;;1.92;;
11839;SDS011;5979;50.800;4.904;2022-09-09T03:33:04;3.50;;;1.85;;
11839;SDS011;5979;50.800;4.904;2022-09-09T03:35:29;3.75;;;1.83;;
11839;SDS011;5979;50.800;4.904;2022-09-09T03:37:55;4.45;;;1.90;;
11839;SDS011;5979;50.800;4.904;2022-09-09T03:40:21;2.90;;;1.90;;
11839;SDS011;5979;50.800;4.904;2022-09-09T03:42:46;5.82;;;2.10;;
11839;SDS011;5979;50.800;4.904;2022-09-09T03:45:13;3.47;;;2.00;;
11839;SDS011;5979;50.800;4.904;2022-09-09T03:47:38;3.70;;;2.03;;
11839;SDS011;5979;50.800;4.904;2022-09-09T03:50:05;4.50;;;2.00;;
11839;SDS011;5979;50.800;4.904;2022-09-09T03:52:34;5.40;;;1.70;;
11839;SDS011;5979;50.800;4.904;2022-09-09T03:55:01;3.80;;;1.92;;
11839;SDS011;5979;50.800;4.904;2022-09-09T03:57:26;2.45;;;1.58;;
11839;SDS011;5979;50.800;4.904;2022-09-09T03:59:52;2.63;;;1.70;;
11839;SDS011;5979;50.800;4.904;2022-09-09T04:02:18;4.75;;;1.58;;
11839;SDS011;5979;50.800;4.904;2022-09-09T04:04:43;3.78;;;1.80;;
11839;SDS011;5979;50.800;4.904;2022-09-09T04:07:09;5.05;;;2.00;;
11839;SDS011;5979;50.800;4.904;2022-09-09T04:09:34;2.10;;;1.80;;
11839;SDS011;5979;50.800;4.904;2022-09-09T04:12:00;4.18;;;1.77;;
11839;SDS011;5979;50.800;4.904;2022-09-09T04:14:26;4.43;;;1.65;;
11839;SDS011;5979;50.800;4.904;2022-09-09T04:16:53;4.55;;;1.67;;
11839;SDS011;5979;50.800;4.904;2022-09-09T04:19:20;5.38;;;1.92;;
11839;SDS011;5979;50.800;4.904;2022-09-09T04:21:46;4.78;;;2.10;;
11839;SDS011;5979;50.800;4.904;2022-09-09T04:24:14;3.00;;;1.98;;
11839;SDS011;5979;50.800;4.904;2022-09-09T04:26:41;4.03;;;2.10;;
11839;SDS011;5979;50.800;4.904;2022-09-09T04:29:07;7.32;;;1.92;;
11839;SDS011;5979;50.800;4.904;2022-09-09T04:31:33;5.53;;;1.92;;
11839;SDS011;5979;50.800;4.904;2022-09-09T04:33:59;3.40;;;1.80;;
11839;SDS011;5979;50.800;4.904;2022-09-09T04:36:29;5.75;;;2.08;;
11839;SDS011;5979;50.800;4.904;2022-09-09T04:38:56;3.63;;;2.30;;
11839;SDS011;5979;50.800;4.904;2022-09-09T04:41:22;2.22;;;2.00;;
11839;SDS011;5979;50.800;4.904;2022-09-09T04:43:48;3.28;;;1.90;;
11839;SDS011;5979;50.800;4.904;2022-09-09T04:46:14;4.90;;;2.08;;
11839;SDS011;5979;50.800;4.904;2022-09-09T04:48:42;2.85;;;1.92;;
11839;SDS011;5979;50.800;4.904;2022-09-09T04:51:08;4.95;;;1.90;;
11839;SDS011;5979;50.800;4.904;2022-09-09T04:53:38;8.45;;;2.28;;
11839;SDS011;5979;50.800;4.904;2022-09-09T04:56:06;5.80;;;2.10;;
11839;SDS011;5979;50.800;4.904;2022-09-09T04:58:39;4.97;;;2.03;;
11839;SDS011;5979;50.800;4.904;2022-09-09T05:01:10;7.45;;;2.50;;
11839;SDS011;5979;50.800;4.904;2022-09-09T05:03:39;3.25;;;2.00;;
11839;SDS011;5979;50.800;4.904;2022-09-09T05:08:38;5.65;;;2.17;;
11839;SDS011;5979;50.800;4.904;2022-09-09T05:11:13;6.00;;;2.08;;
11839;SDS011;5979;50.800;4.904;2022-09-09T05:13:45;3.92;;;2.20;;
11839;SDS011;5979;50.800;4.904;2022-09-09T05:16:11;6.03;;;2.55;;
11839;SDS011;5979;50.800;4.904;2022-09-09T05:18:38;3.13;;;1.95;;
11839;SDS011;5979;50.800;4.904;2022-09-09T05:21:04;3.53;;;2.30;;
11839;SDS011;5979;50.800;4.904;2022-09-09T05:23:31;9.35;;;2.30;;
11839;SDS011;5979;50.800;4.904;2022-09-09T05:25:58;2.90;;;1.90;;
11839;SDS011;5979;50.800;4.904;2022-09-09T05:28:25;13.38;;;3.05;;
11839;SDS011;5979;50.800;4.904;2022-09-09T05:31:01;3.72;;;2.20;;
11839;SDS011;5979;50.800;4.904;2022-09-09T05:33:29;7.88;;;3.25;;
11839;SDS011;5979;50.800;4.904;2022-09-09T05:35:57;5.18;;;2.13;;
11839;SDS011;5979;50.800;4.904;2022-09-09T05:38:23;5.78;;;2.40;;
11839;SDS011;5979;50.800;4.904;2022-09-09T05:40:50;3.45;;;2.10;;
11839;SDS011;5979;50.800;4.904;2022-09-09T05:43:17;3.90;;;2.50;;
11839;SDS011;5979;50.800;4.904;2022-09-09T05:45:46;3.70;;;1.98;;
11839;SDS011;5979;50.800;4.904;2022-09-09T05:48:33;7.93;;;2.90;;
11839;SDS011;5979;50.800;4.904;2022-09-09T05:51:04;4.15;;;2.13;;
11839;SDS011;5979;50.800;4.904;2022-09-09T05:53:31;4.95;;;2.25;;
11839;SDS011;5979;50.800;4.904;2022-09-09T05:56:06;2.25;;;2.05;;
11839;SDS011;5979;50.800;4.904;2022-09-09T05:58:35;5.47;;;2.08;;
11839;SDS011;5979;50.800;4.904;2022-09-09T06:03:30;8.07;;;2.47;;
11839;SDS011;5979;50.800;4.904;2022-09-09T06:05:57;5.63;;;2.38;;
11839;SDS011;5979;50.800;4.904;2022-09-09T06:08:27;5.65;;;2.65;;
11839;SDS011;5979;50.800;4.904;2022-09-09T06:10:53;5.30;;;2.00;;
11839;SDS011;5979;50.800;4.904;2022-09-09T06:13:27;6.28;;;2.10;;
11839;SDS011;5979;50.800;4.904;2022-09-09T06:15:53;4.82;;;2.35;;
11839;SDS011;5979;50.800;4.904;2022-09-09T06:18:19;4.45;;;1.65;;
11839;SDS011;5979;50.800;4.904;2022-09-09T06:20:57;3.63;;;2.08;;
11839;SDS011;5979;50.800;4.904;2022-09-09T06:23:29;5.13;;;2.25;;
11839;SDS011;5979;50.800;4.904;2022-09-09T06:28:27;4.60;;;1.80;;
11839;SDS011;5979;50.800;4.904;2022-09-09T06:30:59;4.72;;;2.13;;
11839;SDS011;5979;50.800;4.904;2022-09-09T06:33:34;5.47;;;1.83;;
11839;SDS011;5979;50.800;4.904;2022-09-09T06:36:01;5.93;;;2.47;;
11839;SDS011;5979;50.800;4.904;2022-09-09T06:38:28;4.47;;;2.00;;
11839;SDS011;5979;50.800;4.904;2022-09-09T06:40:54;3.45;;;1.80;;
11839;SDS011;5979;50.800;4.904;2022-09-09T06:43:23;7.30;;;2.03;;
11839;SDS011;5979;50.800;4.904;2022-09-09T06:46:31;5.05;;;2.28;;
11839;SDS011;5979;50.800;4.904;2022-09-09T06:48:40;3.30;;;2.10;;
11839;SDS011;5979;50.800;4.904;2022-09-09T06:51:19;6.60;;;2.38;;
11839;SDS011;5979;50.800;4.904;2022-09-09T06:53:46;3.53;;;2.00;;
11839;SDS011;5979;50.800;4.904;2022-09-09T06:58:54;4.65;;;2.00;;
11839;SDS011;5979;50.800;4.904;2022-09-09T07:01:25;4.03;;;2.10;;
11839;SDS011;5979;50.800;4.904;2022-09-09T07:03:54;4.80;;;1.98;;
11839;SDS011;5979;50.800;4.904;2022-09-09T07:06:22;6.65;;;2.45;;
11839;SDS011;5979;50.800;4.904;2022-09-09T07:08:49;3.45;;;2.15;;
11839;SDS011;5979;50.800;4.904;2022-09-09T07:11:16;3.78;;;1.85;;
11839;SDS011;5979;50.800;4.904;2022-09-09T07:13:44;5.18;;;2.33;;
11839;SDS011;5979;50.800;4.904;2022-09-09T07:16:14;8.13;;;2.25;;
11839;SDS011;5979;50.800;4.904;2022-09-09T07:18:42;3.72;;;1.80;;
11839;SDS011;5979;50.800;4.904;2022-09-09T07:21:09;4.72;;;1.98;;
11839;SDS011;5979;50.800;4.904;2022-09-09T07:23:40;4.45;;;1.95;;
11839;SDS011;5979;50.800;4.904;2022-09-09T07:26:09;3.80;;;1.90;;
11839;SDS011;5979;50.800;4.904;2022-09-09T07:28:36;6.88;;;2.03;;
11839;SDS011;5979;50.800;4.904;2022-09-09T07:31:03;5.75;;;2.03;;
11839;SDS011;5979;50.800;4.904;2022-09-09T07:33:30;7.10;;;1.80;;
11839;SDS011;5979;50.800;4.904;2022-09-09T07:38:47;6.45;;;2.10;;
11839;SDS011;5979;50.800;4.904;2022-09-09T07:41:17;8.15;;;2.50;;
11839;SDS011;5979;50.800;4.904;2022-09-09T07:43:46;7.63;;;2.20;;
11839;SDS011;5979;50.800;4.904;2022-09-09T07:46:14;7.20;;;2.40;;
11839;SDS011;5979;50.800;4.904;2022-09-09T07:48:44;5.80;;;2.20;;
11839;SDS011;5979;50.800;4.904;2022-09-09T07:51:12;6.45;;;2.05;;
11839;SDS011;5979;50.800;4.904;2022-09-09T07:53:42;8.65;;;2.47;;
11839;SDS011;5979;50.800;4.904;2022-09-09T07:56:09;5.15;;;2.10;;
11839;SDS011;5979;50.800;4.904;2022-09-09T07:58:36;3.55;;;2.00;;
11839;SDS011;5979;50.800;4.904;2022-09-09T08:01:13;5.28;;;1.73;;
11839;SDS011;5979;50.800;4.904;2022-09-09T08:03:43;7.00;;;2.05;;
11839;SDS011;5979;50.800;4.904;2022-09-09T08:06:11;5.80;;;2.40;;
11839;SDS011;5979;50.800;4.904;2022-09-09T08:08:37;3.10;;;1.98;;
11839;SDS011;5979;50.800;4.904;2022-09-09T08:11:08;5.85;;;2.17;;
11839;SDS011;5979;50.800;4.904;2022-09-09T08:13:43;3.25;;;2.22;;
11839;SDS011;5979;50.800;4.904;2022-09-09T08:16:13;6.47;;;1.98;;
11839;SDS011;5979;50.800;4.904;2022-09-09T08:18:40;4.10;;;1.70;;
11839;SDS011;5979;50.800;4.904;2022-09-09T08:21:16;5.63;;;2.13;;
11839;SDS011;5979;50.800;4.904;2022-09-09T08:23:47;7.90;;;2.03;;
11839;SDS011;5979;50.800;4.904;2022-09-09T08:26:15;2.97;;;1.92;;
11839;SDS011;5979;50.800;4.904;2022-09-09T08:28:47;5.72;;;1.83;;
11839;SDS011;5979;50.800;4.904;2022-09-09T08:31:16;6.10;;;2.10;;
11839;SDS011;5979;50.800;4.904;2022-09-09T08:33:44;8.00;;;2.13;;
11839;SDS011;5979;50.800;4.904;2022-09-09T08:36:13;5.32;;;1.77;;
11839;SDS011;5979;50.800;4.904;2022-09-09T08:38:41;3.30;;;1.77;;
11839;SDS011;5979;50.800;4.904;2022-09-09T08:44:00;6.07;;;2.10;;
11839;SDS011;5979;50.800;4.904;2022-09-09T08:52:22;2.53;;;1.38;;
11839;SDS011;5979;50.800;4.904;2022-09-09T08:54:52;4.68;;;1.70;;
11839;SDS011;5979;50.800;4.904;2022-09-09T08:57:25;3.50;;;1.80;;
11839;SDS011;5979;50.800;4.904;2022-09-09T08:59:52;4.82;;;1.63;;
11839;SDS011;5979;50.800;4.904;2022-09-09T09:02:33;6.32;;;1.63;;
11839;SDS011;5979;50.800;4.904;2022-09-09T09:05:46;3.28;;;1.70;;
11839;SDS011;5979;50.800;4.904;2022-09-09T09:11:10;5.97;;;1.83;;
11839;SDS011;5979;50.800;4.904;2022-09-09T09:16:38;3.92;;;1.63;;
11839;SDS011;5979;50.800;4.904;2022-09-09T09:19:14;3.67;;;1.73;;
11839;SDS011;5979;50.800;4.904;2022-09-09T09:21:42;2.95;;;1.38;;
11839;SDS011;5979;50.800;4.904;2022-09-09T09:26:45;3.67;;;1.70;;
11839;SDS011;5979;50.800;4.904;2022-09-09T09:29:13;4.47;;;2.03;;
11839;SDS011;5979;50.800;4.904;2022-09-09T09:31:53;2.75;;;1.50;;
11839;SDS011;5979;50.800;4.904;2022-09-09T09:34:22;7.05;;;1.80;;
11839;SDS011;5979;50.800;4.904;2022-09-09T09:36:56;6.60;;;2.20;;
11839;SDS011;5979;50.800;4.904;2022-09-09T09:39:26;5.97;;;2.17;;
11839;SDS011;5979;50.800;4.904;2022-09-09T09:41:54;3.63;;;2.00;;
11839;SDS011;5979;50.800;4.904;2022-09-09T09:44:25;2.78;;;1.92;;
11839;SDS011;5979;50.800;4.904;2022-09-09T09:47:04;4.45;;;2.03;;
11839;SDS011;5979;50.800;4.904;2022-09-09T09:49:39;5.28;;;2.28;;
11839;SDS011;5979;50.800;4.904;2022-09-09T09:52:23;3.20;;;1.60;;
11839;SDS011;5979;50.800;4.904;2022-09-09T09:54:54;6.85;;;2.40;;
11839;SDS011;5979;50.800;4.904;2022-09-09T09:57:26;4.18;;;2.13;;
11839;SDS011;5979;50.800;4.904;2022-09-09T10:00:01;5.00;;;2.15;;
11839;SDS011;5979;50.800;4.904;2022-09-09T10:02:39;3.50;;;2.05;;
11839;SDS011;5979;50.800;4.904;2022-09-09T10:05:27;6.90;;;2.40;;
11839;SDS011;5979;50.800;4.904;2022-09-09T10:08:02;3.97;;;1.92;;
11839;SDS011;5979;50.800;4.904;2022-09-09T10:16:42;6.05;;;2.20;;
11839;SDS011;5979;50.800;4.904;2022-09-09T10:38:42;5.20;;;2.50;;
11839;SDS011;5979;50.800;4.904;2022-09-09T10:46:54;8.25;;;2.60;;
11839;SDS011;5979;50.800;4.904;2022-09-09T10:55:25;6.28;;;2.60;;
11839;SDS011;5979;50.800;4.904;2022-09-09T10:57:58;4.60;;;2.25;;
11839;SDS011;5979;50.800;4.904;2022-09-09T11:00:31;4.35;;;2.50;;
11839;SDS011;5979;50.800;4.904;2022-09-09T11:03:02;3.95;;;2.30;;
11839;SDS011;5979;50.800;4.904;2022-09-09T11:05:30;5.25;;;2.20;;
11839;SDS011;5979;50.800;4.904;2022-09-09T11:08:13;2.67;;;2.22;;
11839;SDS011;5979;50.800;4.904;2022-09-09T11:13:26;3.95;;;2.42;;
11839;SDS011;5979;50.800;4.904;2022-09-09T11:18:50;4.88;;;2.47;;
11839;SDS011;5979;50.800;4.904;2022-09-09T11:21:36;3.75;;;2.05;;
11839;SDS011;5979;50.800;4.904;2022-09-09T11:24:22;4.93;;;2.17;;
11839;SDS011;5979;50.800;4.904;2022-09-09T11:30:20;3.22;;;1.90;;
11839;SDS011;5979;50.800;4.904;2022-09-09T11:38:45;3.80;;;2.05;;
11839;SDS011;5979;50.800;4.904;2022-09-09T11:41:16;3.85;;;2.00;;
11839;SDS011;5979;50.800;4.904;2022-09-09T11:43:46;4.95;;;1.90;;
11839;SDS011;5979;50.800;4.904;2022-09-09T11:46:17;2.75;;;2.13;;
11839;SDS011;5979;50.800;4.904;2022-09-09T11:48:56;4.85;;;2.25;;
11839;SDS011;5979;50.800;4.904;2022-09-09T11:53:52;2.67;;;1.75;;
11839;SDS011;5979;50.800;4.904;2022-09-09T12:01:54;4.07;;;1.95;;
11839;SDS011;5979;50.800;4.904;2022-09-09T12:09:18;3.20;;;1.50;;
11839;SDS011;5979;50.800;4.904;2022-09-09T12:14:59;2.85;;;1.90;;
11839;SDS011;5979;50.800;4.904;2022-09-09T12:17:29;1.90;;;1.73;;
11839;SDS011;5979;50.800;4.904;2022-09-09T12:20:00;2.72;;;1.83;;
11839;SDS011;5979;50.800;4.904;2022-09-09T12:23:05;2.90;;;1.70;;
11839;SDS011;5979;50.800;4.904;2022-09-09T12:26:12;2.58;;;1.50;;
11839;SDS011;5979;50.800;4.904;2022-09-09T12:34:02;4.38;;;1.80;;
11839;SDS011;5979;50.800;4.904;2022-09-09T12:36:34;5.10;;;1.88;;
11839;SDS011;5979;50.800;4.904;2022-09-09T12:39:10;2.40;;;1.48;;
11839;SDS011;5979;50.800;4.904;2022-09-09T12:41:51;3.35;;;1.67;;
11839;SDS011;5979;50.800;4.904;2022-09-09T12:44:22;2.75;;;1.48;;
11839;SDS011;5979;50.800;4.904;2022-09-09T12:46:53;3.13;;;1.85;;
11839;SDS011;5979;50.800;4.904;2022-09-09T12:52:00;3.05;;;1.70;;
11839;SDS011;5979;50.800;4.904;2022-09-09T12:54:33;2.92;;;1.52;;
11839;SDS011;5979;50.800;4.904;2022-09-09T12:57:00;4.18;;;2.03;;
11839;SDS011;5979;50.800;4.904;2022-09-09T12:59:27;3.40;;;1.63;;
11839;SDS011;5979;50.800;4.904;2022-09-09T13:02:01;3.03;;;1.50;;
11839;SDS011;5979;50.800;4.904;2022-09-09T13:04:27;2.30;;;1.30;;
11839;SDS011;5979;50.800;4.904;2022-09-09T13:06:53;2.03;;;1.80;;
11839;SDS011;5979;50.800;4.904;2022-09-09T13:09:20;4.32;;;1.70;;
11839;SDS011;5979;50.800;4.904;2022-09-09T13:11:50;3.40;;;1.63;;
11839;SDS011;5979;50.800;4.904;2022-09-09T13:14:31;2.88;;;1.88;;
11839;SDS011;5979;50.800;4.904;2022-09-09T13:17:02;2.78;;;1.67;;
11839;SDS011;5979;50.800;4.904;2022-09-09T13:19:31;1.45;;;1.35;;
11839;SDS011;5979;50.800;4.904;2022-09-09T13:22:10;1.60;;;1.50;;
11839;SDS011;5979;50.800;4.904;2022-09-09T13:24:38;2.58;;;1.38;;
11839;SDS011;5979;50.800;4.904;2022-09-09T13:27:05;2.45;;;1.58;;
11839;SDS011;5979;50.800;4.904;2022-09-09T13:29:56;2.72;;;1.70;;
11839;SDS011;5979;50.800;4.904;2022-09-09T13:32:23;1.75;;;1.58;;
11839;SDS011;5979;50.800;4.904;2022-09-09T13:35:22;1.95;;;1.40;;
11839;SDS011;5979;50.800;4.904;2022-09-09T13:37:48;3.03;;;1.65;;
11839;SDS011;5979;50.800;4.904;2022-09-09T13:40:18;3.70;;;1.52;;
11839;SDS011;5979;50.800;4.904;2022-09-09T13:42:46;1.48;;;1.30;;
11839;SDS011;5979;50.800;4.904;2022-09-09T13:45:17;2.33;;;1.48;;
11839;SDS011;5979;50.800;4.904;2022-09-09T13:47:48;2.53;;;1.27;;
11839;SDS011;5979;50.800;4.904;2022-09-09T13:52:48;3.30;;;1.30;;
11839;SDS011;5979;50.800;4.904;2022-09-09T13:55:16;2.40;;;1.63;;
11839;SDS011;5979;50.800;4.904;2022-09-09T13:57:53;5.07;;;1.58;;
11839;SDS011;5979;50.800;4.904;2022-09-09T14:00:20;4.78;;;1.63;;
11839;SDS011;5979;50.800;4.904;2022-09-09T14:02:47;2.15;;;1.38;;
11839;SDS011;5979;50.800;4.904;2022-09-09T14:05:14;2.60;;;1.20;;
11839;SDS011;5979;50.800;4.904;2022-09-09T14:07:41;2.00;;;1.67;;
11839;SDS011;5979;50.800;4.904;2022-09-09T14:10:08;2.50;;;1.38;;
11839;SDS011;5979;50.800;4.904;2022-09-09T14:12:34;1.88;;;1.40;;
11839;SDS011;5979;50.800;4.904;2022-09-09T14:15:01;1.58;;;1.40;;
11839;SDS011;5979;50.800;4.904;2022-09-09T14:17:27;3.03;;;1.67;;
11839;SDS011;5979;50.800;4.904;2022-09-09T14:19:56;1.33;;;1.30;;
11839;SDS011;5979;50.800;4.904;2022-09-09T14:22:22;2.40;;;1.40;;
11839;SDS011;5979;50.800;4.904;2022-09-09T14:24:49;2.60;;;1.30;;
11839;SDS011;5979;50.800;4.904;2022-09-09T14:27:16;2.25;;;1.58;;
11839;SDS011;5979;50.800;4.904;2022-09-09T14:29:42;1.20;;;1.20;;
11839;SDS011;5979;50.800;4.904;2022-09-09T14:32:09;3.78;;;1.80;;
11839;SDS011;5979;50.800;4.904;2022-09-09T14:34:35;2.28;;;1.60;;
11839;SDS011;5979;50.800;4.904;2022-09-09T14:37:01;1.38;;;1.10;;
11839;SDS011;5979;50.800;4.904;2022-09-09T14:39:27;1.40;;;1.30;;
11839;SDS011;5979;50.800;4.904;2022-09-09T14:41:53;5.65;;;1.80;;
11839;SDS011;5979;50.800;4.904;2022-09-09T14:44:18;4.38;;;1.42;;
11839;SDS011;5979;50.800;4.904;2022-09-09T14:46:44;2.95;;;1.58;;
11839;SDS011;5979;50.800;4.904;2022-09-09T14:49:10;3.92;;;1.70;;
11839;SDS011;5979;50.800;4.904;2022-09-09T14:51:36;1.70;;;1.60;;
11839;SDS011;5979;50.800;4.904;2022-09-09T14:54:02;3.30;;;1.60;;
11839;SDS011;5979;50.800;4.904;2022-09-09T14:56:29;3.05;;;1.42;;
11839;SDS011;5979;50.800;4.904;2022-09-09T14:58:56;2.03;;;1.60;;
11839;SDS011;5979;50.800;4.904;2022-09-09T15:01:24;2.85;;;1.00;;
11839;SDS011;5979;50.800;4.904;2022-09-09T15:04:10;5.65;;;1.40;;
11839;SDS011;5979;50.800;4.904;2022-09-09T15:06:39;2.50;;;1.65;;
11839;SDS011;5979;50.800;4.904;2022-09-09T15:09:07;1.38;;;1.27;;
11839;SDS011;5979;50.800;4.904;2022-09-09T15:11:34;1.50;;;1.40;;
11839;SDS011;5979;50.800;4.904;2022-09-09T15:14:04;5.18;;;1.75;;
11839;SDS011;5979;50.800;4.904;2022-09-09T15:16:31;1.65;;;1.20;;
11839;SDS011;5979;50.800;4.904;2022-09-09T15:18:58;1.83;;;1.33;;
11839;SDS011;5979;50.800;4.904;2022-09-09T15:21:25;3.15;;;1.35;;
11839;SDS011;5979;50.800;4.904;2022-09-09T15:23:56;1.42;;;1.30;;
11839;SDS011;5979;50.800;4.904;2022-09-09T15:26:22;2.63;;;1.40;;
11839;SDS011;5979;50.800;4.904;2022-09-09T15:28:48;1.50;;;1.38;;
11839;SDS011;5979;50.800;4.904;2022-09-09T15:31:24;1.98;;;1.38;;
11839;SDS011;5979;50.800;4.904;2022-09-09T15:34:03;1.92;;;1.20;;
11839;SDS011;5979;50.800;4.904;2022-09-09T15:36:30;1.58;;;1.15;;
11839;SDS011;5979;50.800;4.904;2022-09-09T15:38:58;2.40;;;1.23;;
11839;SDS011;5979;50.800;4.904;2022-09-09T15:41:24;2.03;;;1.45;;
11839;SDS011;5979;50.800;4.904;2022-09-09T15:43:51;1.67;;;1.17;;
11839;SDS011;5979;50.800;4.904;2022-09-09T15:48:52;2.78;;;1.30;;
11839;SDS011;5979;50.800;4.904;2022-09-09T15:51:23;2.95;;;1.50;;
11839;SDS011;5979;50.800;4.904;2022-09-09T15:53:56;2.17;;;1.17;;
11839;SDS011;5979;50.800;4.904;2022-09-09T15:56:23;1.85;;;1.63;;
11839;SDS011;5979;50.800;4.904;2022-09-09T15:58:53;2.42;;;1.40;;
11839;SDS011;5979;50.800;4.904;2022-09-09T16:01:20;2.72;;;1.60;;
11839;SDS011;5979;50.800;4.904;2022-09-09T16:03:46;1.38;;;1.20;;
11839;SDS011;5979;50.800;4.904;2022-09-09T16:06:16;1.77;;;1.40;;
11839;SDS011;5979;50.800;4.904;2022-09-09T16:08:43;3.72;;;1.40;;
11839;SDS011;5979;50.800;4.904;2022-09-09T16:11:15;4.53;;;1.48;;
11839;SDS011;5979;50.800;4.904;2022-09-09T16:13:46;2.17;;;1.50;;
11839;SDS011;5979;50.800;4.904;2022-09-09T16:16:13;4.45;;;1.83;;
11839;SDS011;5979;50.800;4.904;2022-09-09T16:18:41;2.20;;;1.55;;
11839;SDS011;5979;50.800;4.904;2022-09-09T16:21:08;2.55;;;1.27;;
11839;SDS011;5979;50.800;4.904;2022-09-09T16:23:43;1.50;;;1.33;;
11839;SDS011;5979;50.800;4.904;2022-09-09T16:26:13;1.50;;;1.40;;
11839;SDS011;5979;50.800;4.904;2022-09-09T16:28:40;2.45;;;1.58;;
11839;SDS011;5979;50.800;4.904;2022-09-09T16:31:06;1.73;;;1.30;;
11839;SDS011;5979;50.800;4.904;2022-09-09T16:33:33;1.60;;;1.50;;
11839;SDS011;5979;50.800;4.904;2022-09-09T16:36:04;1.75;;;1.38;;
11839;SDS011;5979;50.800;4.904;2022-09-09T16:38:30;1.50;;;1.40;;
11839;SDS011;5979;50.800;4.904;2022-09-09T16:40:59;2.53;;;1.27;;
11839;SDS011;5979;50.800;4.904;2022-09-09T16:43:25;2.95;;;1.45;;
11839;SDS011;5979;50.800;4.904;2022-09-09T16:45:51;1.25;;;1.20;;
11839;SDS011;5979;50.800;4.904;2022-09-09T16:48:17;2.10;;;1.33;;
11839;SDS011;5979;50.800;4.904;2022-09-09T16:50:42;5.75;;;1.52;;
11839;SDS011;5979;50.800;4.904;2022-09-09T16:53:08;1.80;;;1.38;;
11839;SDS011;5979;50.800;4.904;2022-09-09T16:55:40;4.95;;;1.50;;
11839;SDS011;5979;50.800;4.904;2022-09-09T16:58:07;3.10;;;1.38;;
11839;SDS011;5979;50.800;4.904;2022-09-09T17:00:35;3.90;;;1.58;;
11839;SDS011;5979;50.800;4.904;2022-09-09T17:03:01;2.85;;;1.50;;
11839;SDS011;5979;50.800;4.904;2022-09-09T17:05:27;2.63;;;1.83;;
11839;SDS011;5979;50.800;4.904;2022-09-09T17:07:54;1.63;;;1.25;;
11839;SDS011;5979;50.800;4.904;2022-09-09T17:10:23;2.95;;;1.45;;
11839;SDS011;5979;50.800;4.904;2022-09-09T17:12:50;1.98;;;1.13;;
11839;SDS011;5979;50.800;4.904;2022-09-09T17:15:16;1.65;;;1.10;;
11839;SDS011;5979;50.800;4.904;2022-09-09T17:17:43;1.85;;;1.13;;
11839;SDS011;5979;50.800;4.904;2022-09-09T17:20:10;1.10;;;1.00;;
11839;SDS011;5979;50.800;4.904;2022-09-09T17:22:36;3.47;;;1.60;;
11839;SDS011;5979;50.800;4.904;2022-09-09T17:25:02;3.33;;;1.38;;
11839;SDS011;5979;50.800;4.904;2022-09-09T17:27:28;1.52;;;1.27;;
11839;SDS011;5979;50.800;4.904;2022-09-09T17:29:56;4.78;;;1.50;;
11839;SDS011;5979;50.800;4.904;2022-09-09T17:32:23;2.80;;;1.08;;
11839;SDS011;5979;50.800;4.904;2022-09-09T17:34:49;2.85;;;1.40;;
11839;SDS011;5979;50.800;4.904;2022-09-09T17:37:14;2.20;;;1.40;;
11839;SDS011;5979;50.800;4.904;2022-09-09T17:39:40;4.38;;;1.60;;
11839;SDS011;5979;50.800;4.904;2022-09-09T17:42:06;3.03;;;1.50;;
11839;SDS011;5979;50.800;4.904;2022-09-09T17:44:34;2.00;;;1.30;;
11839;SDS011;5979;50.800;4.904;2022-09-09T17:47:00;2.65;;;1.33;;
11839;SDS011;5979;50.800;4.904;2022-09-09T17:49:25;7.95;;;1.88;;
11839;SDS011;5979;50.800;4.904;2022-09-09T17:51:51;4.85;;;1.75;;